createdAt,value
2019-03-12T00:05:14.259Z,101366
2019-03-12T00:10:36.884Z,101364
2019-03-12T00:15:59.572Z,101363
2019-03-12T00:21:22.376Z,101363
2019-03-12T00:26:45.040Z,101357
2019-03-12T00:32:07.734Z,101365
2019-03-12T00:37:30.762Z,101376
2019-03-12T00:42:53.665Z,101374
2019-03-12T00:48:17.423Z,101377
2019-03-12T00:53:40.185Z,101377
2019-03-12T00:59:02.896Z,101377
2019-03-12T01:04:26.240Z,101387
2019-03-12T01:09:49.182Z,101378
2019-03-12T01:15:12.021Z,101366
2019-03-12T01:20:34.804Z,101363
2019-03-12T01:25:57.578Z,101373
2019-03-12T01:31:29.318Z,101366
2019-03-12T01:37:01.786Z,101360
2019-03-12T01:42:24.498Z,101348
2019-03-12T01:47:47.434Z,101341
2019-03-12T01:53:10.296Z,101337
2019-03-12T01:58:32.963Z,101329
2019-03-12T02:03:55.756Z,101318
2019-03-12T02:09:18.567Z,101322
2019-03-12T02:14:41.251Z,101321
2019-03-12T02:20:03.957Z,101312
2019-03-12T02:25:26.656Z,101307
2019-03-12T02:30:49.483Z,101297
2019-03-12T02:36:13.173Z,101293
2019-03-12T02:41:35.927Z,101276
2019-03-12T02:46:59.409Z,101273
2019-03-12T02:52:50.957Z,101268
2019-03-12T02:58:14.937Z,101257
2019-03-12T03:03:46.831Z,101254
2019-03-12T03:09:09.662Z,101252
2019-03-12T03:14:32.599Z,101245
2019-03-12T03:19:55.522Z,101239
2019-03-12T03:25:18.215Z,101229
2019-03-12T03:30:41.109Z,101229
2019-03-12T03:36:04.101Z,101213
2019-03-12T03:41:26.867Z,101216
2019-03-12T03:46:51.017Z,101216
2019-03-12T03:52:13.819Z,101218
2019-03-12T03:57:38.048Z,101216
2019-03-12T04:03:00.914Z,101214
2019-03-12T04:08:23.622Z,101213
2019-03-12T04:13:47.530Z,101207
2019-03-12T04:19:10.316Z,101198
2019-03-12T04:24:33.129Z,101195
2019-03-12T04:29:55.858Z,101203
2019-03-12T04:35:18.639Z,101189
2019-03-12T04:40:41.435Z,101187
2019-03-12T04:46:04.183Z,101182
2019-03-12T04:51:27.468Z,101167
2019-03-12T04:56:50.688Z,101162
2019-03-12T05:02:14.327Z,101153
2019-03-12T05:07:37.319Z,101149
2019-03-12T05:13:00.094Z,101145
2019-03-12T05:18:22.754Z,101126
2019-03-12T05:23:45.600Z,101108
2019-03-12T05:29:08.289Z,101091
2019-03-12T05:34:31.112Z,101086
2019-03-12T05:40:03.286Z,101079
2019-03-12T05:45:26.230Z,101077
2019-03-12T05:50:58.903Z,101073
2019-03-12T05:56:21.957Z,101069
2019-03-12T06:01:55.514Z,101065
2019-03-12T06:07:18.231Z,101049
2019-03-12T06:12:41.029Z,101041
2019-03-12T06:18:12.885Z,101035
2019-03-12T06:23:35.684Z,101026
2019-03-12T06:29:07.304Z,101025
2019-03-12T06:34:30.288Z,101004
2019-03-12T06:39:53.178Z,100994
2019-03-12T06:45:26.968Z,100986
2019-03-12T06:50:49.993Z,100980
2019-03-12T06:56:12.755Z,100975
2019-03-12T07:01:35.481Z,100962
2019-03-12T07:07:00.963Z,100961
2019-03-12T07:12:22.322Z,100948
2019-03-12T07:17:55.047Z,100925
2019-03-12T07:23:27.164Z,100910
2019-03-12T07:28:50.965Z,100909
2019-03-12T07:34:17.920Z,100897
2019-03-12T07:39:45.829Z,100893
2019-03-12T07:45:16.118Z,100890
2019-03-12T07:50:39.139Z,100883
2019-03-12T07:56:01.870Z,100881
2019-03-12T08:01:25.067Z,100865
2019-03-12T08:06:57.436Z,100877
2019-03-12T08:12:20.171Z,100869
2019-03-12T08:17:43.060Z,100860
2019-03-12T08:23:06.593Z,100848
2019-03-12T08:28:39.346Z,100848
2019-03-12T08:34:02.318Z,100831
2019-03-12T08:39:25.025Z,100826
2019-03-12T08:44:58.979Z,100816
2019-03-12T08:50:19.517Z,100805
2019-03-12T08:55:52.284Z,100790
2019-03-12T09:01:15.084Z,100770
2019-03-12T09:06:37.778Z,100753
2019-03-12T09:12:00.483Z,100732
2019-03-12T09:17:23.279Z,100706
2019-03-12T09:22:46.211Z,100680
2019-03-12T09:28:08.892Z,100678
2019-03-12T09:33:31.699Z,100656
2019-03-12T09:38:55.022Z,100614
2019-03-12T09:44:17.621Z,100593
2019-03-12T09:49:40.301Z,100589
2019-03-12T09:55:04.855Z,100571
2019-03-12T10:00:25.877Z,100567
2019-03-12T10:05:48.725Z,100536
2019-03-12T10:11:11.862Z,100519
2019-03-12T10:16:44.912Z,100515
2019-03-12T10:22:16.598Z,100493
2019-03-12T10:27:39.601Z,100472
2019-03-12T10:33:02.391Z,100466
2019-03-12T10:38:25.106Z,100468
2019-03-12T10:43:48.019Z,100450
2019-03-12T10:49:11.996Z,100430
2019-03-12T10:54:34.704Z,100424
2019-03-12T10:59:57.614Z,100406
2019-03-12T11:05:20.999Z,100404
2019-03-12T11:10:43.687Z,100394
2019-03-12T11:16:06.774Z,100370
2019-03-12T11:21:29.773Z,100355
2019-03-12T11:26:52.921Z,100335
2019-03-12T11:32:15.730Z,100320
2019-03-12T11:37:38.610Z,100297
2019-03-12T11:43:01.488Z,100289
2019-03-12T11:48:24.277Z,100266
2019-03-12T11:53:47.702Z,100255
2019-03-12T11:59:10.005Z,100240
2019-03-12T12:04:32.996Z,100220
2019-03-12T12:09:55.740Z,100203
2019-03-12T12:15:27.707Z,100196
2019-03-12T12:20:50.500Z,100182
2019-03-12T12:26:16.328Z,100166
2019-03-12T12:31:39.189Z,100153
2019-03-12T12:37:01.975Z,100147
2019-03-12T12:42:52.611Z,100135
2019-03-12T12:48:15.659Z,100115
2019-03-12T12:53:38.394Z,100102
2019-03-12T12:59:01.183Z,100079
2019-03-12T13:04:23.790Z,100061
2019-03-12T13:09:47.245Z,100054
2019-03-12T13:15:09.923Z,100050
2019-03-12T13:20:34.369Z,100027
2019-03-12T13:25:57.102Z,100008
2019-03-12T13:31:19.934Z,99989
2019-03-12T13:36:43.797Z,99976
2019-03-12T13:42:06.757Z,99947
2019-03-12T13:47:29.996Z,99947
2019-03-12T13:52:52.406Z,99931
2019-03-12T13:58:15.020Z,99924
2019-03-12T14:03:37.661Z,99899
2019-03-12T14:09:00.265Z,99872
2019-03-12T14:14:23.617Z,99855
2019-03-12T14:19:46.360Z,99835
2019-03-12T14:25:09.287Z,99831
2019-03-12T14:30:31.973Z,99810
2019-03-12T14:35:55.110Z,99802
2019-03-12T14:41:18.749Z,99795
2019-03-12T14:46:41.837Z,99766
2019-03-12T14:52:04.521Z,99760
2019-03-12T14:57:27.314Z,99740
2019-03-12T15:02:49.981Z,99719
2019-03-12T15:08:13.160Z,99701
2019-03-12T15:13:36.012Z,99689
2019-03-12T15:18:58.763Z,99668
2019-03-12T15:24:21.405Z,99652
2019-03-12T15:29:44.130Z,99638
2019-03-12T15:35:06.925Z,99619
2019-03-12T15:40:29.547Z,99590
2019-03-12T15:45:52.452Z,99585
2019-03-12T15:51:16.202Z,99562
2019-03-12T15:56:38.897Z,99547
2019-03-12T16:02:01.582Z,99529
2019-03-12T16:07:25.425Z,99496
2019-03-12T16:12:48.397Z,99485
2019-03-12T16:18:11.005Z,99464
2019-03-12T16:23:33.600Z,99441
2019-03-12T16:28:56.650Z,99430
2019-03-12T16:34:19.574Z,99416
2019-03-12T16:39:42.559Z,99390
2019-03-12T16:45:05.283Z,99407
2019-03-12T16:50:28.073Z,99384
2019-03-12T16:55:59.620Z,99371
2019-03-12T17:01:22.320Z,99339
2019-03-12T17:06:45.004Z,99310
2019-03-12T17:12:07.979Z,99295
2019-03-12T17:17:31.512Z,99288
2019-03-12T17:22:53.815Z,99274
2019-03-12T17:28:16.898Z,99276
2019-03-12T17:33:39.468Z,99264
2019-03-12T17:39:02.323Z,99241
2019-03-12T17:44:25.095Z,99217
2019-03-12T17:49:48.000Z,99196
2019-03-12T17:55:11.050Z,99200
2019-03-12T18:00:34.063Z,99158
2019-03-12T18:05:56.694Z,99144
2019-03-12T18:11:19.320Z,99136
2019-03-12T18:16:41.917Z,99121
2019-03-12T18:22:04.581Z,99106
2019-03-12T18:27:27.551Z,99093
2019-03-12T18:32:50.242Z,99091
2019-03-12T18:38:12.914Z,99082
2019-03-12T18:43:35.855Z,99079
2019-03-12T18:48:58.650Z,99049
2019-03-12T18:54:21.318Z,99051
2019-03-12T18:59:44.766Z,99044
2019-03-12T19:05:07.446Z,99033
2019-03-12T19:10:30.536Z,99044
2019-03-12T19:15:54.250Z,99031
2019-03-12T19:21:16.859Z,99014
2019-03-12T19:26:39.511Z,98993
2019-03-12T19:32:02.271Z,98980
2019-03-12T19:37:28.682Z,98961
2019-03-12T19:42:51.892Z,98956
2019-03-12T19:48:15.102Z,98951
2019-03-12T19:53:37.870Z,98962
2019-03-12T19:59:00.971Z,98969
2019-03-12T20:04:23.913Z,98952
2019-03-12T20:09:47.002Z,98956
2019-03-12T20:15:08.088Z,98934
2019-03-12T20:20:31.132Z,98925
2019-03-12T20:25:54.046Z,98922
2019-03-12T20:31:17.347Z,98900
2019-03-12T20:36:41.243Z,98892
2019-03-12T20:42:04.241Z,98896
2019-03-12T20:47:27.968Z,98888
2019-03-12T20:52:51.188Z,98890
2019-03-12T20:58:14.202Z,98909
2019-03-12T21:03:37.712Z,98908
2019-03-12T21:09:00.469Z,98914
2019-03-12T21:14:23.234Z,98888
2019-03-12T21:19:45.970Z,98870
2019-03-12T21:25:08.858Z,98846
2019-03-12T21:30:32.390Z,98849
2019-03-12T21:35:55.427Z,98850
2019-03-12T21:41:18.090Z,98858
2019-03-12T21:46:40.808Z,98893
2019-03-12T21:52:03.514Z,98911
2019-03-12T21:57:27.091Z,98947
2019-03-12T22:02:49.852Z,99010
2019-03-12T22:08:12.608Z,99011
2019-03-12T22:13:35.445Z,99023
2019-03-12T22:18:58.087Z,99040
2019-03-12T22:24:21.325Z,99058
2019-03-12T22:29:43.979Z,99062
2019-03-12T22:35:06.756Z,99081
2019-03-12T22:40:29.472Z,99091
2019-03-12T22:45:52.119Z,99107
2019-03-12T22:51:14.898Z,99124
2019-03-12T22:56:37.624Z,99138
2019-03-12T23:02:00.290Z,99137
2019-03-12T23:07:22.959Z,99161
2019-03-12T23:12:45.671Z,99167
2019-03-12T23:18:08.440Z,99192
2019-03-12T23:23:31.508Z,99202
2019-03-12T23:28:54.116Z,99216
2019-03-12T23:34:16.718Z,99211
2019-03-12T23:39:39.390Z,99219
2019-03-12T23:45:02.014Z,99227
2019-03-12T23:50:24.646Z,99243
2019-03-12T23:55:47.262Z,99248
